Dirección General De Aeronáutica Civil

Dirección Meteorológica de Chile - Servicios Climáticos

Informe General de Control de Calidad de la Estación

Listado de niveles de control de calidad para algunos parámetros
Estación San Pedro (330179)
Fecha de Revisión de los datos :

Elementos

Registros Niveles de Control Total
Nivel 0 Nivel 1 Nivel 2 Nivel 3 Errores Porcentaje
01 Temperatura del Aire Seco 125.082 0 . 61 0.05 % 0 . 0 . 61 0.05 %
02 Temperatura de Rocío 125.099 0 . 0 . 0 . 0 . 0 0.00 %
03 Humedad Relativa del Aire 125.110 0 . 0 . 0 . 0 . 0 0.00 %
04 Temperatura Máxima PM 1.192 0 . 0 . 0 . 0 . 0 0.00 %
05 Temperatura Mínima AM 1.175 0 . 0 . 0 . 0 . 0 0.00 %
06 Agua Caida, Acumulada 6 Horas 21.806 0 . 0 . 0 . 0 . 0 0.00 %
07 Presión Atm. a Nivel de Estación (QFE) 124.636 0 . 0 . 0 . 0 . 0 0.00 %
08 Presión Atm. a Nivel Medio del Mar (QFF) 28.262 0 . 0 . 0 . 0 . 0 0.00 %
09 Presión Atm. Estándar OACI (QNH) 28.262 0 . 0 . 0 . 0 . 0 0.00 %

Totales

580.624 . 0.0000 % . 0.0105 % . 0.0000 % . 0.0000 % 61 0.0105 %

Detalle de Errores Encontrados

Nivel Fecha del Dato Descripción Información Error Fecha Ingreso
1 2015-08-07 07:00:00 Ts debe ser mayor o igual a Td Ts=9.4 - Td=9.5 2023-11-18 10:50:00
1 2015-08-07 14:00:00 Ts debe ser mayor o igual a Td Ts=10.6 - Td=10.7 2023-11-18 10:50:00
1 2016-05-24 07:00:00 Ts debe ser mayor o igual a Td Ts=9.0 - Td=9.1 2023-11-18 10:56:00
1 2016-05-25 12:00:00 Ts debe ser mayor o igual a Td Ts=7.6 - Td=7.7 2023-11-18 10:56:00
1 2016-05-25 13:00:00 Ts debe ser mayor o igual a Td Ts=8.4 - Td=8.5 2023-11-18 10:56:00
1 2016-05-26 14:00:00 Ts debe ser mayor o igual a Td Ts=11.6 - Td=11.7 2023-11-18 10:56:00
1 2016-05-28 13:00:00 Ts debe ser mayor o igual a Td Ts=10.6 - Td=10.7 2023-11-18 10:56:00
1 2016-05-30 11:00:00 Ts debe ser mayor o igual a Td Ts=8.7 - Td=8.8 2023-11-18 10:56:00
1 2016-05-31 16:00:00 Ts debe ser mayor o igual a Td Ts=10.7 - Td=10.8 2023-11-18 10:56:00
1 2016-06-02 14:00:00 Ts debe ser mayor o igual a Td Ts=7.5 - Td=7.6 2023-11-18 10:56:00
1 2016-06-03 14:00:00 Ts debe ser mayor o igual a Td Ts=10.3 - Td=10.4 2023-11-18 10:56:00
1 2016-06-03 23:00:00 Ts debe ser mayor o igual a Td Ts=10.7 - Td=10.8 2023-11-18 10:56:00
1 2016-06-04 09:00:00 Ts debe ser mayor o igual a Td Ts=6.9 - Td=7.0 2023-11-18 10:57:00
1 2016-06-12 09:00:00 Ts debe ser mayor o igual a Td Ts=7.1 - Td=7.2 2023-11-18 10:57:00
1 2016-06-12 16:00:00 Ts debe ser mayor o igual a Td Ts=9.1 - Td=9.2 2023-11-18 10:57:00
1 2016-06-15 14:00:00 Ts debe ser mayor o igual a Td Ts=7.1 - Td=7.2 2023-11-18 10:57:00
1 2016-07-02 08:00:00 Ts debe ser mayor o igual a Td Ts=7.1 - Td=7.2 2023-11-18 10:57:00
1 2016-07-02 10:00:00 Ts debe ser mayor o igual a Td Ts=7.1 - Td=7.2 2023-11-18 10:57:00
1 2016-07-06 15:00:00 Ts debe ser mayor o igual a Td Ts=4.8 - Td=4.9 2023-11-18 10:57:00
1 2016-07-10 13:00:00 Ts debe ser mayor o igual a Td Ts=8.5 - Td=8.6 2023-11-18 10:57:00
1 2016-07-12 17:00:00 Ts debe ser mayor o igual a Td Ts=9.0 - Td=9.1 2023-11-18 10:57:00
1 2017-10-04 05:00:00 Ts debe ser mayor o igual a Td Ts=0.0 - Td=9.4 2023-11-18 11:10:00
1 2019-10-01 11:00:00 Ts debe ser mayor o igual a Td Ts=0.4 - Td=1.6 2023-11-08 08:33:00
1 2019-10-01 12:00:00 Ts debe ser mayor o igual a Td Ts=2.1 - Td=5.6 2023-11-08 08:33:00
1 2019-10-01 13:00:00 Ts debe ser mayor o igual a Td Ts=6.0 - Td=8.8 2023-11-08 08:33:00
1 2019-10-02 11:00:00 Ts debe ser mayor o igual a Td Ts=-1.7 - Td=1.4 2023-11-08 08:33:00
1 2019-10-02 12:00:00 Ts debe ser mayor o igual a Td Ts=2.3 - Td=4.7 2023-11-08 08:33:00
1 2019-10-03 11:00:00 Ts debe ser mayor o igual a Td Ts=0.0 - Td=2.4 2023-11-08 08:33:00
1 2019-10-03 12:00:00 Ts debe ser mayor o igual a Td Ts=3.5 - Td=5.0 2023-11-08 08:33:00
1 2019-10-04 11:00:00 Ts debe ser mayor o igual a Td Ts=0.9 - Td=3.9 2023-11-08 08:33:00
1 2019-10-05 11:00:00 Ts debe ser mayor o igual a Td Ts=1.5 - Td=2.8 2023-11-08 08:33:00
1 2019-10-06 11:00:00 Ts debe ser mayor o igual a Td Ts=3.6 - Td=5.0 2023-11-08 08:33:00
1 2019-10-15 11:00:00 Ts debe ser mayor o igual a Td Ts=9.9 - Td=11.6 2023-11-08 08:33:00
1 2019-10-16 11:00:00 Ts debe ser mayor o igual a Td Ts=5.8 - Td=7.6 2023-11-08 08:33:00
1 2019-10-18 11:00:00 Ts debe ser mayor o igual a Td Ts=3.8 - Td=5.9 2023-11-08 08:33:00
1 2019-10-21 11:00:00 Ts debe ser mayor o igual a Td Ts=6.6 - Td=8.0 2023-11-08 08:33:00
1 2019-10-23 12:00:00 Ts debe ser mayor o igual a Td Ts=8.9 - Td=9.2 2023-11-08 08:33:00
1 2019-10-23 13:00:00 Ts debe ser mayor o igual a Td Ts=10.2 - Td=11.1 2023-11-08 08:33:00
1 2019-10-25 11:00:00 Ts debe ser mayor o igual a Td Ts=5.4 - Td=7.1 2023-11-08 08:34:00
1 2019-10-25 12:00:00 Ts debe ser mayor o igual a Td Ts=9.0 - Td=9.7 2023-11-08 08:34:00
1 2019-10-26 11:00:00 Ts debe ser mayor o igual a Td Ts=7.9 - Td=8.3 2023-11-08 08:34:00
1 2019-10-27 07:00:00 Ts debe ser mayor o igual a Td Ts=9.4 - Td=10.1 2023-11-08 08:34:00
1 2019-10-28 11:00:00 Ts debe ser mayor o igual a Td Ts=6.0 - Td=7.8 2023-11-08 08:34:00
1 2019-10-29 11:00:00 Ts debe ser mayor o igual a Td Ts=4.3 - Td=5.1 2023-11-08 08:34:00
1 2019-10-30 11:00:00 Ts debe ser mayor o igual a Td Ts=6.8 - Td=7.1 2023-11-08 08:34:00
1 2019-11-01 10:00:00 Ts debe ser mayor o igual a Td Ts=4.9 - Td=5.7 2023-11-08 08:34:00
1 2019-11-01 11:00:00 Ts debe ser mayor o igual a Td Ts=7.2 - Td=8.1 2023-11-08 08:34:00
1 2019-11-06 11:00:00 Ts debe ser mayor o igual a Td Ts=7.2 - Td=9.4 2023-11-08 08:34:00
1 2019-11-08 11:00:00 Ts debe ser mayor o igual a Td Ts=9.1 - Td=10.8 2023-11-08 08:34:00
1 2019-11-09 10:00:00 Ts debe ser mayor o igual a Td Ts=6.9 - Td=7.8 2023-11-08 08:34:00
1 2019-11-09 11:00:00 Ts debe ser mayor o igual a Td Ts=8.8 - Td=11.8 2023-11-08 08:34:00
1 2019-11-10 11:00:00 Ts debe ser mayor o igual a Td Ts=9.0 - Td=9.5 2023-11-08 08:34:00
1 2019-11-11 09:00:00 Ts debe ser mayor o igual a Td Ts=11.3 - Td=11.4 2023-11-08 08:34:00
1 2019-11-11 10:00:00 Ts debe ser mayor o igual a Td Ts=11.9 - Td=12.1 2023-11-08 08:34:00
1 2019-11-12 08:00:00 Ts debe ser mayor o igual a Td Ts=8.6 - Td=10.0 2023-11-08 08:34:00
1 2019-11-21 10:00:00 Ts debe ser mayor o igual a Td Ts=9.4 - Td=10.9 2023-11-08 08:34:00
1 2019-11-22 10:00:00 Ts debe ser mayor o igual a Td Ts=8.1 - Td=10.3 2023-11-08 08:34:00
1 2019-11-22 11:00:00 Ts debe ser mayor o igual a Td Ts=11.6 - Td=13.1 2023-11-08 08:34:00
1 2019-11-23 10:00:00 Ts debe ser mayor o igual a Td Ts=8.9 - Td=9.7 2023-11-08 08:34:00
1 2019-12-11 11:00:00 Ts debe ser mayor o igual a Td Ts=10.7 - Td=12.0 2023-11-08 08:34:00
1 2021-02-15 18:00:00 Ts debe ser mayor o igual a Td Ts=0.0 - Td=14.5 2021-02-15 19:30:00
Errores del Nivel 61
Informe generado el 05-03-2024 09:35
Requerimiento: RE6001